Terminal Aerodrome Forecast
Issued by NWS

Home | Current Version | Previous Version | Text Only | Print | Product List | Glossary On
Versions: 1 2 3 4 5 6 7 8 9 10 11 12 13
000
FTUS46 KLOX 282300
TAFPRB
TAF
KPRB 282335Z 2900/2924 10006KT P6SM SCT250
     FM290500 VRB03KT P6SM SKC
     FM291300 01003KT 4SM BR SCT004
     FM292100 35005KT P6SM SKC=

USA.gov is the U.S. government's official web portal to all federal, state and local government web resources and services.